sensor_id;sensor_type;location;lat;lon;timestamp;P1;durP1;ratioP1;P2;durP2;ratioP2
10465;SDS011;5280;42.600;23.556;2023-07-22T00:01:09;4.95;;;4.30;;
10465;SDS011;5280;42.600;23.556;2023-07-22T00:03:35;7.40;;;4.30;;
10465;SDS011;5280;42.600;23.556;2023-07-22T00:06:04;4.75;;;4.07;;
10465;SDS011;5280;42.600;23.556;2023-07-22T00:08:32;4.53;;;4.13;;
10465;SDS011;5280;42.600;23.556;2023-07-22T00:11:01;4.95;;;4.45;;
10465;SDS011;5280;42.600;23.556;2023-07-22T00:13:28;5.05;;;4.05;;
10465;SDS011;5280;42.600;23.556;2023-07-22T00:15:57;5.45;;;4.07;;
10465;SDS011;5280;42.600;23.556;2023-07-22T00:18:24;5.65;;;4.18;;
10465;SDS011;5280;42.600;23.556;2023-07-22T00:20:54;4.80;;;4.07;;
10465;SDS011;5280;42.600;23.556;2023-07-22T00:23:23;5.15;;;4.07;;
10465;SDS011;5280;42.600;23.556;2023-07-22T00:25:50;4.90;;;4.40;;
10465;SDS011;5280;42.600;23.556;2023-07-22T00:28:17;4.72;;;4.32;;
10465;SDS011;5280;42.600;23.556;2023-07-22T00:30:44;5.75;;;4.20;;
10465;SDS011;5280;42.600;23.556;2023-07-22T00:33:11;5.45;;;4.30;;
10465;SDS011;5280;42.600;23.556;2023-07-22T00:35:39;5.85;;;4.07;;
10465;SDS011;5280;42.600;23.556;2023-07-22T01:42:15;6.45;;;4.53;;
10465;SDS011;5280;42.600;23.556;2023-07-22T01:44:43;7.70;;;4.63;;
10465;SDS011;5280;42.600;23.556;2023-07-22T01:47:15;5.20;;;4.70;;
10465;SDS011;5280;42.600;23.556;2023-07-22T01:49:47;5.20;;;4.45;;
10465;SDS011;5280;42.600;23.556;2023-07-22T01:52:16;6.97;;;4.90;;
10465;SDS011;5280;42.600;23.556;2023-07-22T01:54:45;6.97;;;4.82;;
10465;SDS011;5280;42.600;23.556;2023-07-22T01:57:16;6.80;;;4.53;;
10465;SDS011;5280;42.600;23.556;2023-07-22T01:59:43;6.05;;;4.93;;
10465;SDS011;5280;42.600;23.556;2023-07-22T02:02:11;6.23;;;4.97;;
10465;SDS011;5280;42.600;23.556;2023-07-22T02:04:39;5.17;;;4.60;;
10465;SDS011;5280;42.600;23.556;2023-07-22T02:07:06;7.50;;;4.73;;
10465;SDS011;5280;42.600;23.556;2023-07-22T02:09:32;6.67;;;5.10;;
10465;SDS011;5280;42.600;23.556;2023-07-22T02:11:59;7.13;;;4.43;;
10465;SDS011;5280;42.600;23.556;2023-07-22T02:14:34;7.10;;;4.93;;
10465;SDS011;5280;42.600;23.556;2023-07-22T02:17:02;6.00;;;4.77;;
10465;SDS011;5280;42.600;23.556;2023-07-22T02:19:31;5.50;;;4.90;;
10465;SDS011;5280;42.600;23.556;2023-07-22T02:22:02;5.70;;;4.63;;
10465;SDS011;5280;42.600;23.556;2023-07-22T02:24:30;4.90;;;4.47;;
10465;SDS011;5280;42.600;23.556;2023-07-22T02:26:57;7.47;;;5.03;;
10465;SDS011;5280;42.600;23.556;2023-07-22T02:29:28;5.53;;;5.00;;
10465;SDS011;5280;42.600;23.556;2023-07-22T02:31:59;6.10;;;5.23;;
10465;SDS011;5280;42.600;23.556;2023-07-22T02:34:27;6.30;;;5.03;;
10465;SDS011;5280;42.600;23.556;2023-07-22T02:37:01;7.30;;;5.40;;
10465;SDS011;5280;42.600;23.556;2023-07-22T02:39:32;5.63;;;5.13;;
10465;SDS011;5280;42.600;23.556;2023-07-22T02:42:05;5.20;;;4.57;;
10465;SDS011;5280;42.600;23.556;2023-07-22T02:44:33;8.18;;;5.00;;
10465;SDS011;5280;42.600;23.556;2023-07-22T02:47:01;5.53;;;4.63;;
10465;SDS011;5280;42.600;23.556;2023-07-22T02:49:31;5.43;;;5.00;;
10465;SDS011;5280;42.600;23.556;2023-07-22T02:51:58;5.57;;;4.77;;
10465;SDS011;5280;42.600;23.556;2023-07-22T02:54:25;7.87;;;4.73;;
10465;SDS011;5280;42.600;23.556;2023-07-22T02:56:52;6.57;;;4.90;;
10465;SDS011;5280;42.600;23.556;2023-07-22T02:59:20;5.83;;;5.07;;
10465;SDS011;5280;42.600;23.556;2023-07-22T03:01:57;5.63;;;4.97;;
10465;SDS011;5280;42.600;23.556;2023-07-22T03:04:34;6.10;;;5.27;;
10465;SDS011;5280;42.600;23.556;2023-07-22T03:07:07;5.73;;;5.23;;
10465;SDS011;5280;42.600;23.556;2023-07-22T03:09:39;5.77;;;4.67;;
10465;SDS011;5280;42.600;23.556;2023-07-22T03:12:11;9.13;;;5.07;;
10465;SDS011;5280;42.600;23.556;2023-07-22T03:14:38;4.87;;;4.47;;
10465;SDS011;5280;42.600;23.556;2023-07-22T03:17:05;5.83;;;4.90;;
10465;SDS011;5280;42.600;23.556;2023-07-22T03:19:42;6.57;;;4.70;;
10465;SDS011;5280;42.600;23.556;2023-07-22T03:22:18;7.97;;;4.83;;
10465;SDS011;5280;42.600;23.556;2023-07-22T03:24:50;6.27;;;4.80;;
10465;SDS011;5280;42.600;23.556;2023-07-22T03:27:20;5.23;;;4.80;;
10465;SDS011;5280;42.600;23.556;2023-07-22T03:29:49;8.70;;;5.50;;
10465;SDS011;5280;42.600;23.556;2023-07-22T03:32:22;7.17;;;5.07;;
10465;SDS011;5280;42.600;23.556;2023-07-22T03:35:11;5.07;;;4.50;;
10465;SDS011;5280;42.600;23.556;2023-07-22T03:38:06;8.80;;;5.13;;
10465;SDS011;5280;42.600;23.556;2023-07-22T03:40:45;5.50;;;5.00;;
10465;SDS011;5280;42.600;23.556;2023-07-22T03:46:18;8.17;;;4.57;;
10465;SDS011;5280;42.600;23.556;2023-07-22T03:48:48;10.30;;;5.53;;
10465;SDS011;5280;42.600;23.556;2023-07-22T03:51:27;6.47;;;4.97;;
10465;SDS011;5280;42.600;23.556;2023-07-22T03:54:19;4.93;;;4.43;;
10465;SDS011;5280;42.600;23.556;2023-07-22T03:57:26;6.97;;;5.07;;
10465;SDS011;5280;42.600;23.556;2023-07-22T04:10:34;6.00;;;5.40;;
10465;SDS011;5280;42.600;23.556;2023-07-22T04:13:09;6.78;;;5.15;;
10465;SDS011;5280;42.600;23.556;2023-07-22T04:15:43;6.73;;;5.70;;
10465;SDS011;5280;42.600;23.556;2023-07-22T04:18:14;6.30;;;4.97;;
10465;SDS011;5280;42.600;23.556;2023-07-22T04:20:42;5.50;;;4.65;;
10465;SDS011;5280;42.600;23.556;2023-07-22T04:23:13;6.63;;;5.47;;
10465;SDS011;5280;42.600;23.556;2023-07-22T04:28:34;5.53;;;4.70;;
10465;SDS011;5280;42.600;23.556;2023-07-22T04:31:11;9.43;;;6.00;;
10465;SDS011;5280;42.600;23.556;2023-07-22T04:33:49;6.18;;;5.57;;
10465;SDS011;5280;42.600;23.556;2023-07-22T04:36:19;6.68;;;5.00;;
10465;SDS011;5280;42.600;23.556;2023-07-22T04:40:10;5.82;;;5.10;;
10465;SDS011;5280;42.600;23.556;2023-07-22T04:42:03;5.15;;;4.63;;
10465;SDS011;5280;42.600;23.556;2023-07-22T04:44:32;6.03;;;5.20;;
10465;SDS011;5280;42.600;23.556;2023-07-22T04:47:08;6.65;;;5.45;;
10465;SDS011;5280;42.600;23.556;2023-07-22T04:49:47;8.95;;;5.68;;
10465;SDS011;5280;42.600;23.556;2023-07-22T04:52:35;10.70;;;5.28;;
10465;SDS011;5280;42.600;23.556;2023-07-22T04:55:25;6.40;;;5.43;;
10465;SDS011;5280;42.600;23.556;2023-07-22T04:58:09;7.30;;;5.53;;
10465;SDS011;5280;42.600;23.556;2023-07-22T05:17:41;8.00;;;5.70;;
10465;SDS011;5280;42.600;23.556;2023-07-22T05:20:13;5.13;;;4.63;;
10465;SDS011;5280;42.600;23.556;2023-07-22T05:22:55;7.40;;;5.15;;
10465;SDS011;5280;42.600;23.556;2023-07-22T05:25:29;6.18;;;4.88;;
10465;SDS011;5280;42.600;23.556;2023-07-22T05:28:04;5.97;;;5.20;;
10465;SDS011;5280;42.600;23.556;2023-07-22T05:30:36;5.82;;;5.18;;
10465;SDS011;5280;42.600;23.556;2023-07-22T05:33:15;6.95;;;4.82;;
10465;SDS011;5280;42.600;23.556;2023-07-22T05:35:48;8.55;;;5.35;;
10465;SDS011;5280;42.600;23.556;2023-07-22T05:38:28;5.70;;;5.07;;
10465;SDS011;5280;42.600;23.556;2023-07-22T05:40:58;6.78;;;5.40;;
10465;SDS011;5280;42.600;23.556;2023-07-22T05:43:27;7.47;;;5.35;;
10465;SDS011;5280;42.600;23.556;2023-07-22T05:46:01;7.05;;;5.47;;
10465;SDS011;5280;42.600;23.556;2023-07-22T05:48:35;5.95;;;5.25;;
10465;SDS011;5280;42.600;23.556;2023-07-22T05:51:11;6.45;;;5.63;;
10465;SDS011;5280;42.600;23.556;2023-07-22T05:53:41;5.45;;;4.95;;
10465;SDS011;5280;42.600;23.556;2023-07-22T05:56:31;8.00;;;5.70;;
10465;SDS011;5280;42.600;23.556;2023-07-22T06:23:38;8.10;;;5.75;;
10465;SDS011;5280;42.600;23.556;2023-07-22T06:44:00;6.80;;;6.10;;
10465;SDS011;5280;42.600;23.556;2023-07-22T06:46:28;9.38;;;5.95;;
10465;SDS011;5280;42.600;23.556;2023-07-22T06:48:54;9.40;;;6.78;;
10465;SDS011;5280;42.600;23.556;2023-07-22T06:51:24;8.02;;;6.03;;
10465;SDS011;5280;42.600;23.556;2023-07-22T06:53:54;6.82;;;5.88;;
10465;SDS011;5280;42.600;23.556;2023-07-22T06:56:24;6.75;;;5.90;;
10465;SDS011;5280;42.600;23.556;2023-07-22T06:59:30;8.25;;;6.15;;
10465;SDS011;5280;42.600;23.556;2023-07-22T07:01:57;9.50;;;6.53;;
10465;SDS011;5280;42.600;23.556;2023-07-22T07:04:25;6.78;;;5.93;;
10465;SDS011;5280;42.600;23.556;2023-07-22T07:17:46;9.75;;;7.07;;
10465;SDS011;5280;42.600;23.556;2023-07-22T07:20:14;7.30;;;6.55;;
10465;SDS011;5280;42.600;23.556;2023-07-22T07:22:40;6.68;;;6.07;;
10465;SDS011;5280;42.600;23.556;2023-07-22T07:25:09;8.00;;;6.72;;
10465;SDS011;5280;42.600;23.556;2023-07-22T07:28:30;8.32;;;6.65;;
10465;SDS011;5280;42.600;23.556;2023-07-22T07:36:21;7.47;;;6.28;;
10465;SDS011;5280;42.600;23.556;2023-07-22T07:38:53;7.35;;;6.65;;
10465;SDS011;5280;42.600;23.556;2023-07-22T07:41:37;9.23;;;6.53;;
10465;SDS011;5280;42.600;23.556;2023-07-22T07:44:04;8.13;;;6.40;;
10465;SDS011;5280;42.600;23.556;2023-07-22T07:46:33;7.43;;;5.97;;
10465;SDS011;5280;42.600;23.556;2023-07-22T07:49:00;8.15;;;6.00;;
10465;SDS011;5280;42.600;23.556;2023-07-22T07:51:30;6.75;;;5.80;;
10465;SDS011;5280;42.600;23.556;2023-07-22T07:53:57;8.70;;;6.10;;
10465;SDS011;5280;42.600;23.556;2023-07-22T07:56:29;7.88;;;6.28;;
10465;SDS011;5280;42.600;23.556;2023-07-22T07:58:58;8.88;;;6.30;;
10465;SDS011;5280;42.600;23.556;2023-07-22T08:01:26;8.32;;;6.70;;
10465;SDS011;5280;42.600;23.556;2023-07-22T08:03:58;9.27;;;7.22;;
10465;SDS011;5280;42.600;23.556;2023-07-22T08:06:25;7.32;;;6.43;;
10465;SDS011;5280;42.600;23.556;2023-07-22T08:08:53;7.18;;;6.18;;
10465;SDS011;5280;42.600;23.556;2023-07-22T08:11:20;6.90;;;6.18;;
10465;SDS011;5280;42.600;23.556;2023-07-22T08:13:47;7.97;;;6.40;;
10465;SDS011;5280;42.600;23.556;2023-07-22T08:16:13;11.15;;;6.53;;
10465;SDS011;5280;42.600;23.556;2023-07-22T08:18:41;8.10;;;6.75;;
10465;SDS011;5280;42.600;23.556;2023-07-22T08:21:09;10.35;;;6.53;;
10465;SDS011;5280;42.600;23.556;2023-07-22T08:23:37;9.63;;;6.45;;
10465;SDS011;5280;42.600;23.556;2023-07-22T08:26:06;8.38;;;6.72;;
10465;SDS011;5280;42.600;23.556;2023-07-22T08:28:33;9.20;;;6.72;;
10465;SDS011;5280;42.600;23.556;2023-07-22T08:31:02;8.85;;;6.07;;
10465;SDS011;5280;42.600;23.556;2023-07-22T08:33:29;11.18;;;6.47;;
10465;SDS011;5280;42.600;23.556;2023-07-22T08:35:57;11.45;;;6.10;;
10465;SDS011;5280;42.600;23.556;2023-07-22T08:38:24;7.55;;;6.63;;
10465;SDS011;5280;42.600;23.556;2023-07-22T08:40:51;8.63;;;6.35;;
10465;SDS011;5280;42.600;23.556;2023-07-22T08:43:20;7.57;;;6.57;;
10465;SDS011;5280;42.600;23.556;2023-07-22T08:45:48;7.68;;;6.30;;
10465;SDS011;5280;42.600;23.556;2023-07-22T08:48:21;8.32;;;6.97;;
10465;SDS011;5280;42.600;23.556;2023-07-22T08:50:53;13.38;;;7.00;;
10465;SDS011;5280;42.600;23.556;2023-07-22T08:53:22;8.85;;;6.72;;
10465;SDS011;5280;42.600;23.556;2023-07-22T08:55:50;7.72;;;6.28;;
10465;SDS011;5280;42.600;23.556;2023-07-22T08:58:17;7.25;;;6.50;;
10465;SDS011;5280;42.600;23.556;2023-07-22T09:00:45;16.17;;;8.35;;
10465;SDS011;5280;42.600;23.556;2023-07-22T09:03:14;9.02;;;6.63;;
10465;SDS011;5280;42.600;23.556;2023-07-22T09:05:43;7.90;;;6.82;;
10465;SDS011;5280;42.600;23.556;2023-07-22T09:08:11;10.73;;;7.15;;
10465;SDS011;5280;42.600;23.556;2023-07-22T09:10:38;8.55;;;6.75;;
10465;SDS011;5280;42.600;23.556;2023-07-22T09:13:06;7.82;;;6.80;;
10465;SDS011;5280;42.600;23.556;2023-07-22T09:15:34;11.07;;;6.97;;
10465;SDS011;5280;42.600;23.556;2023-07-22T09:18:03;9.13;;;6.57;;
10465;SDS011;5280;42.600;23.556;2023-07-22T09:20:30;9.60;;;6.65;;
10465;SDS011;5280;42.600;23.556;2023-07-22T09:22:58;8.57;;;6.65;;
10465;SDS011;5280;42.600;23.556;2023-07-22T09:25:26;9.63;;;6.93;;
10465;SDS011;5280;42.600;23.556;2023-07-22T09:27:54;11.00;;;6.90;;
10465;SDS011;5280;42.600;23.556;2023-07-22T09:30:24;12.25;;;6.93;;
10465;SDS011;5280;42.600;23.556;2023-07-22T09:32:53;11.88;;;7.43;;
10465;SDS011;5280;42.600;23.556;2023-07-22T09:35:24;9.77;;;6.57;;
10465;SDS011;5280;42.600;23.556;2023-07-22T09:37:52;9.52;;;7.38;;
10465;SDS011;5280;42.600;23.556;2023-07-22T09:40:20;11.70;;;6.93;;
10465;SDS011;5280;42.600;23.556;2023-07-22T09:42:48;10.68;;;6.82;;
10465;SDS011;5280;42.600;23.556;2023-07-22T09:45:16;9.02;;;7.35;;
10465;SDS011;5280;42.600;23.556;2023-07-22T09:47:45;8.65;;;6.88;;
10465;SDS011;5280;42.600;23.556;2023-07-22T09:50:14;8.68;;;6.80;;
10465;SDS011;5280;42.600;23.556;2023-07-22T09:52:44;11.15;;;6.75;;
10465;SDS011;5280;42.600;23.556;2023-07-22T09:55:17;10.80;;;6.18;;
10465;SDS011;5280;42.600;23.556;2023-07-22T09:57:49;10.15;;;6.93;;
10465;SDS011;5280;42.600;23.556;2023-07-22T10:00:16;10.05;;;6.88;;
10465;SDS011;5280;42.600;23.556;2023-07-22T10:02:44;8.25;;;6.28;;
10465;SDS011;5280;42.600;23.556;2023-07-22T10:05:14;8.77;;;6.38;;
10465;SDS011;5280;42.600;23.556;2023-07-22T10:07:43;11.45;;;7.07;;
10465;SDS011;5280;42.600;23.556;2023-07-22T10:10:12;12.20;;;7.07;;
10465;SDS011;5280;42.600;23.556;2023-07-22T10:12:43;12.63;;;7.00;;
10465;SDS011;5280;42.600;23.556;2023-07-22T10:15:10;12.00;;;7.13;;
10465;SDS011;5280;42.600;23.556;2023-07-22T10:17:40;7.38;;;6.53;;
10465;SDS011;5280;42.600;23.556;2023-07-22T10:20:08;9.55;;;6.95;;
10465;SDS011;5280;42.600;23.556;2023-07-22T10:22:40;15.57;;;7.28;;
10465;SDS011;5280;42.600;23.556;2023-07-22T10:25:10;12.40;;;6.97;;
10465;SDS011;5280;42.600;23.556;2023-07-22T10:27:38;14.05;;;7.28;;
10465;SDS011;5280;42.600;23.556;2023-07-22T10:30:07;11.27;;;6.88;;
10465;SDS011;5280;42.600;23.556;2023-07-22T10:32:35;9.85;;;7.30;;
10465;SDS011;5280;42.600;23.556;2023-07-22T10:35:03;13.68;;;7.35;;
10465;SDS011;5280;42.600;23.556;2023-07-22T10:37:35;8.68;;;6.78;;
10465;SDS011;5280;42.600;23.556;2023-07-22T10:42:54;12.07;;;6.97;;
10465;SDS011;5280;42.600;23.556;2023-07-22T10:45:24;11.23;;;7.03;;
10465;SDS011;5280;42.600;23.556;2023-07-22T10:47:59;10.90;;;6.75;;
10465;SDS011;5280;42.600;23.556;2023-07-22T10:50:37;12.30;;;7.10;;
10465;SDS011;5280;42.600;23.556;2023-07-22T10:53:05;11.98;;;6.32;;
10465;SDS011;5280;42.600;23.556;2023-07-22T10:55:41;11.18;;;6.75;;
10465;SDS011;5280;42.600;23.556;2023-07-22T11:01:37;14.32;;;6.63;;
10465;SDS011;5280;42.600;23.556;2023-07-22T11:04:06;12.60;;;7.05;;
10465;SDS011;5280;42.600;23.556;2023-07-22T11:07:02;14.00;;;7.10;;
10465;SDS011;5280;42.600;23.556;2023-07-22T11:12:17;10.60;;;6.78;;
10465;SDS011;5280;42.600;23.556;2023-07-22T11:14:46;13.73;;;7.25;;
10465;SDS011;5280;42.600;23.556;2023-07-22T11:17:14;15.10;;;7.22;;
10465;SDS011;5280;42.600;23.556;2023-07-22T11:19:42;18.55;;;7.45;;
10465;SDS011;5280;42.600;23.556;2023-07-22T11:22:14;10.85;;;6.70;;
10465;SDS011;5280;42.600;23.556;2023-07-22T11:24:41;16.00;;;6.93;;
10465;SDS011;5280;42.600;23.556;2023-07-22T11:27:08;11.25;;;6.63;;
10465;SDS011;5280;42.600;23.556;2023-07-22T11:29:37;11.38;;;6.85;;
10465;SDS011;5280;42.600;23.556;2023-07-22T11:32:05;17.05;;;6.90;;
10465;SDS011;5280;42.600;23.556;2023-07-22T11:34:33;14.48;;;7.18;;
10465;SDS011;5280;42.600;23.556;2023-07-22T11:37:00;15.52;;;7.30;;
10465;SDS011;5280;42.600;23.556;2023-07-22T11:39:27;21.65;;;7.35;;
10465;SDS011;5280;42.600;23.556;2023-07-22T11:41:57;15.05;;;7.03;;
10465;SDS011;5280;42.600;23.556;2023-07-22T11:44:26;15.45;;;7.20;;
10465;SDS011;5280;42.600;23.556;2023-07-22T11:46:56;15.40;;;6.55;;
10465;SDS011;5280;42.600;23.556;2023-07-22T11:49:25;15.75;;;7.78;;
10465;SDS011;5280;42.600;23.556;2023-07-22T11:51:56;18.48;;;7.53;;
10465;SDS011;5280;42.600;23.556;2023-07-22T11:54:24;16.63;;;6.43;;
10465;SDS011;5280;42.600;23.556;2023-07-22T11:56:51;15.45;;;6.22;;
10465;SDS011;5280;42.600;23.556;2023-07-22T11:59:31;17.50;;;6.63;;
10465;SDS011;5280;42.600;23.556;2023-07-22T12:02:01;19.23;;;6.55;;
10465;SDS011;5280;42.600;23.556;2023-07-22T12:04:28;17.40;;;6.50;;
10465;SDS011;5280;42.600;23.556;2023-07-22T12:06:55;23.48;;;6.30;;
10465;SDS011;5280;42.600;23.556;2023-07-22T12:09:25;16.52;;;6.40;;
10465;SDS011;5280;42.600;23.556;2023-07-22T12:11:56;16.52;;;7.00;;
10465;SDS011;5280;42.600;23.556;2023-07-22T12:14:25;16.15;;;6.25;;
10465;SDS011;5280;42.600;23.556;2023-07-22T12:17:01;16.90;;;6.65;;
10465;SDS011;5280;42.600;23.556;2023-07-22T12:19:28;14.32;;;5.97;;
10465;SDS011;5280;42.600;23.556;2023-07-22T12:21:56;20.05;;;5.78;;
10465;SDS011;5280;42.600;23.556;2023-07-22T12:24:22;21.52;;;6.40;;
10465;SDS011;5280;42.600;23.556;2023-07-22T12:26:49;14.13;;;6.10;;
10465;SDS011;5280;42.600;23.556;2023-07-22T12:29:16;15.95;;;6.03;;
10465;SDS011;5280;42.600;23.556;2023-07-22T12:31:43;22.27;;;6.75;;
10465;SDS011;5280;42.600;23.556;2023-07-22T12:34:11;20.15;;;5.93;;
10465;SDS011;5280;42.600;23.556;2023-07-22T12:36:38;16.20;;;6.03;;
10465;SDS011;5280;42.600;23.556;2023-07-22T12:39:05;17.88;;;5.85;;
10465;SDS011;5280;42.600;23.556;2023-07-22T12:41:31;16.98;;;6.05;;
10465;SDS011;5280;42.600;23.556;2023-07-22T12:43:58;13.15;;;5.82;;
10465;SDS011;5280;42.600;23.556;2023-07-22T12:46:25;17.60;;;5.60;;
10465;SDS011;5280;42.600;23.556;2023-07-22T12:48:52;22.52;;;7.20;;
10465;SDS011;5280;42.600;23.556;2023-07-22T12:51:20;16.42;;;6.38;;
10465;SDS011;5280;42.600;23.556;2023-07-22T12:53:47;21.73;;;5.93;;
10465;SDS011;5280;42.600;23.556;2023-07-22T12:56:13;19.80;;;6.05;;
10465;SDS011;5280;42.600;23.556;2023-07-22T12:58:40;18.90;;;5.97;;
10465;SDS011;5280;42.600;23.556;2023-07-22T13:01:07;22.33;;;6.30;;
10465;SDS011;5280;42.600;23.556;2023-07-22T13:03:34;19.95;;;5.78;;
10465;SDS011;5280;42.600;23.556;2023-07-22T13:06:00;16.42;;;5.75;;
10465;SDS011;5280;42.600;23.556;2023-07-22T13:08:28;19.02;;;6.50;;
10465;SDS011;5280;42.600;23.556;2023-07-22T13:10:55;15.63;;;5.90;;
10465;SDS011;5280;42.600;23.556;2023-07-22T13:13:22;17.80;;;5.68;;
10465;SDS011;5280;42.600;23.556;2023-07-22T13:15:49;17.08;;;5.88;;
10465;SDS011;5280;42.600;23.556;2023-07-22T13:18:16;15.52;;;5.75;;
10465;SDS011;5280;42.600;23.556;2023-07-22T13:20:43;24.38;;;6.00;;
10465;SDS011;5280;42.600;23.556;2023-07-22T13:23:10;16.50;;;5.80;;
10465;SDS011;5280;42.600;23.556;2023-07-22T13:25:38;16.83;;;5.90;;
10465;SDS011;5280;42.600;23.556;2023-07-22T13:28:05;21.15;;;6.18;;
10465;SDS011;5280;42.600;23.556;2023-07-22T13:30:32;16.65;;;6.22;;
10465;SDS011;5280;42.600;23.556;2023-07-22T13:32:58;21.05;;;5.95;;
10465;SDS011;5280;42.600;23.556;2023-07-22T13:35:25;15.90;;;5.63;;
10465;SDS011;5280;42.600;23.556;2023-07-22T13:37:52;16.58;;;6.25;;
10465;SDS011;5280;42.600;23.556;2023-07-22T13:40:19;11.63;;;5.40;;
10465;SDS011;5280;42.600;23.556;2023-07-22T13:42:48;19.10;;;6.22;;
10465;SDS011;5280;42.600;23.556;2023-07-22T13:45:15;19.48;;;5.85;;
10465;SDS011;5280;42.600;23.556;2023-07-22T13:47:42;13.95;;;5.45;;
10465;SDS011;5280;42.600;23.556;2023-07-22T13:50:11;21.27;;;6.20;;
10465;SDS011;5280;42.600;23.556;2023-07-22T13:52:38;16.63;;;6.07;;
10465;SDS011;5280;42.600;23.556;2023-07-22T13:55:06;16.73;;;6.38;;
10465;SDS011;5280;42.600;23.556;2023-07-22T13:57:34;22.40;;;6.03;;
10465;SDS011;5280;42.600;23.556;2023-07-22T14:00:03;16.27;;;6.45;;
10465;SDS011;5280;42.600;23.556;2023-07-22T14:02:33;17.70;;;6.15;;
10465;SDS011;5280;42.600;23.556;2023-07-22T14:05:00;17.48;;;6.47;;
10465;SDS011;5280;42.600;23.556;2023-07-22T14:07:28;17.88;;;6.53;;
10465;SDS011;5280;42.600;23.556;2023-07-22T14:09:55;22.05;;;6.70;;
10465;SDS011;5280;42.600;23.556;2023-07-22T14:12:22;17.75;;;6.22;;
10465;SDS011;5280;42.600;23.556;2023-07-22T14:14:49;17.25;;;6.78;;
10465;SDS011;5280;42.600;23.556;2023-07-22T14:17:17;18.50;;;6.28;;
10465;SDS011;5280;42.600;23.556;2023-07-22T14:19:44;17.52;;;7.03;;
10465;SDS011;5280;42.600;23.556;2023-07-22T14:22:10;19.48;;;6.32;;
10465;SDS011;5280;42.600;23.556;2023-07-22T14:24:37;19.23;;;8.60;;
10465;SDS011;5280;42.600;23.556;2023-07-22T14:27:04;18.15;;;6.63;;
10465;SDS011;5280;42.600;23.556;2023-07-22T14:29:31;18.75;;;6.78;;
10465;SDS011;5280;42.600;23.556;2023-07-22T14:31:58;17.83;;;6.88;;
10465;SDS011;5280;42.600;23.556;2023-07-22T14:34:26;22.27;;;6.45;;
10465;SDS011;5280;42.600;23.556;2023-07-22T14:36:53;17.05;;;5.30;;
10465;SDS011;5280;42.600;23.556;2023-07-22T14:39:20;18.95;;;6.00;;
10465;SDS011;5280;42.600;23.556;2023-07-22T14:41:47;18.85;;;5.78;;
10465;SDS011;5280;42.600;23.556;2023-07-22T14:44:13;13.50;;;5.85;;
10465;SDS011;5280;42.600;23.556;2023-07-22T14:46:40;13.00;;;5.35;;
10465;SDS011;5280;42.600;23.556;2023-07-22T14:49:07;15.50;;;6.07;;
10465;SDS011;5280;42.600;23.556;2023-07-22T14:51:36;18.13;;;6.25;;
10465;SDS011;5280;42.600;23.556;2023-07-22T14:54:03;16.67;;;5.63;;
10465;SDS011;5280;42.600;23.556;2023-07-22T14:56:30;17.92;;;6.22;;
10465;SDS011;5280;42.600;23.556;2023-07-22T14:58:57;17.77;;;6.22;;
10465;SDS011;5280;42.600;23.556;2023-07-22T15:01:24;15.35;;;5.63;;
10465;SDS011;5280;42.600;23.556;2023-07-22T15:03:51;12.80;;;5.37;;
10465;SDS011;5280;42.600;23.556;2023-07-22T15:06:18;20.90;;;6.22;;
10465;SDS011;5280;42.600;23.556;2023-07-22T15:08:46;24.15;;;5.70;;
10465;SDS011;5280;42.600;23.556;2023-07-22T15:11:13;19.17;;;6.72;;
10465;SDS011;5280;42.600;23.556;2023-07-22T15:13:40;17.42;;;5.95;;
10465;SDS011;5280;42.600;23.556;2023-07-22T15:16:07;13.50;;;5.30;;
10465;SDS011;5280;42.600;23.556;2023-07-22T15:18:34;14.18;;;5.20;;
10465;SDS011;5280;42.600;23.556;2023-07-22T15:21:01;21.23;;;5.93;;
10465;SDS011;5280;42.600;23.556;2023-07-22T15:23:28;15.80;;;5.50;;
10465;SDS011;5280;42.600;23.556;2023-07-22T15:25:56;19.48;;;6.55;;
10465;SDS011;5280;42.600;23.556;2023-07-22T15:28:23;26.20;;;6.22;;
10465;SDS011;5280;42.600;23.556;2023-07-22T15:30:50;18.88;;;5.45;;
10465;SDS011;5280;42.600;23.556;2023-07-22T15:33:17;15.98;;;5.55;;
10465;SDS011;5280;42.600;23.556;2023-07-22T15:35:44;20.85;;;6.15;;
10465;SDS011;5280;42.600;23.556;2023-07-22T15:38:11;17.73;;;5.40;;
10465;SDS011;5280;42.600;23.556;2023-07-22T15:40:38;13.80;;;5.85;;
10465;SDS011;5280;42.600;23.556;2023-07-22T15:43:11;10.93;;;4.97;;
10465;SDS011;5280;42.600;23.556;2023-07-22T15:45:37;14.68;;;5.60;;
10465;SDS011;5280;42.600;23.556;2023-07-22T15:48:04;14.15;;;5.43;;
10465;SDS011;5280;42.600;23.556;2023-07-22T15:50:32;18.02;;;4.95;;
10465;SDS011;5280;42.600;23.556;2023-07-22T15:52:58;22.55;;;6.57;;
10465;SDS011;5280;42.600;23.556;2023-07-22T15:55:25;14.07;;;5.82;;
10465;SDS011;5280;42.600;23.556;2023-07-22T15:57:52;12.45;;;5.47;;
10465;SDS011;5280;42.600;23.556;2023-07-22T16:00:24;13.40;;;5.25;;
10465;SDS011;5280;42.600;23.556;2023-07-22T16:02:51;11.25;;;5.10;;
10465;SDS011;5280;42.600;23.556;2023-07-22T16:05:18;13.52;;;5.70;;
10465;SDS011;5280;42.600;23.556;2023-07-22T16:07:46;14.95;;;5.63;;
10465;SDS011;5280;42.600;23.556;2023-07-22T16:10:12;12.82;;;5.53;;
10465;SDS011;5280;42.600;23.556;2023-07-22T16:12:39;11.23;;;5.10;;
10465;SDS011;5280;42.600;23.556;2023-07-22T16:15:07;13.60;;;6.25;;
10465;SDS011;5280;42.600;23.556;2023-07-22T16:17:36;11.45;;;5.57;;
10465;SDS011;5280;42.600;23.556;2023-07-22T16:20:08;12.43;;;5.10;;
10465;SDS011;5280;42.600;23.556;2023-07-22T16:22:36;10.40;;;4.78;;
10465;SDS011;5280;42.600;23.556;2023-07-22T16:25:03;12.35;;;4.43;;
10465;SDS011;5280;42.600;23.556;2023-07-22T16:27:31;16.17;;;4.90;;
10465;SDS011;5280;42.600;23.556;2023-07-22T16:29:58;12.30;;;5.22;;
10465;SDS011;5280;42.600;23.556;2023-07-22T16:32:25;12.20;;;5.40;;
10465;SDS011;5280;42.600;23.556;2023-07-22T16:34:54;8.50;;;4.65;;
10465;SDS011;5280;42.600;23.556;2023-07-22T16:37:27;11.63;;;4.95;;
10465;SDS011;5280;42.600;23.556;2023-07-22T16:39:54;6.30;;;3.97;;
10465;SDS011;5280;42.600;23.556;2023-07-22T16:42:22;10.80;;;5.22;;
10465;SDS011;5280;42.600;23.556;2023-07-22T16:44:51;10.27;;;4.82;;
10465;SDS011;5280;42.600;23.556;2023-07-22T16:47:18;8.40;;;4.63;;
10465;SDS011;5280;42.600;23.556;2023-07-22T16:49:48;11.50;;;5.35;;
10465;SDS011;5280;42.600;23.556;2023-07-22T16:52:18;11.30;;;5.03;;
10465;SDS011;5280;42.600;23.556;2023-07-22T16:54:46;9.93;;;5.00;;
10465;SDS011;5280;42.600;23.556;2023-07-22T16:57:16;9.82;;;4.93;;
10465;SDS011;5280;42.600;23.556;2023-07-22T16:59:49;10.32;;;4.85;;
10465;SDS011;5280;42.600;23.556;2023-07-22T17:02:16;13.75;;;5.38;;
10465;SDS011;5280;42.600;23.556;2023-07-22T17:04:46;15.15;;;5.22;;
10465;SDS011;5280;42.600;23.556;2023-07-22T17:07:15;12.57;;;4.15;;
10465;SDS011;5280;42.600;23.556;2023-07-22T17:09:44;10.50;;;4.93;;
10465;SDS011;5280;42.600;23.556;2023-07-22T17:12:11;9.48;;;4.82;;
10465;SDS011;5280;42.600;23.556;2023-07-22T17:14:38;10.35;;;4.70;;
10465;SDS011;5280;42.600;23.556;2023-07-22T17:17:05;13.55;;;5.45;;
10465;SDS011;5280;42.600;23.556;2023-07-22T17:19:35;8.93;;;4.50;;
10465;SDS011;5280;42.600;23.556;2023-07-22T17:22:06;11.93;;;4.70;;
10465;SDS011;5280;42.600;23.556;2023-07-22T17:24:42;15.32;;;5.38;;
10465;SDS011;5280;42.600;23.556;2023-07-22T17:27:11;8.63;;;5.03;;
10465;SDS011;5280;42.600;23.556;2023-07-22T17:29:38;12.77;;;4.30;;
10465;SDS011;5280;42.600;23.556;2023-07-22T17:32:09;9.50;;;4.63;;
10465;SDS011;5280;42.600;23.556;2023-07-22T17:34:42;10.75;;;5.20;;
10465;SDS011;5280;42.600;23.556;2023-07-22T17:37:09;8.82;;;4.40;;
10465;SDS011;5280;42.600;23.556;2023-07-22T17:39:36;10.60;;;5.05;;
10465;SDS011;5280;42.600;23.556;2023-07-22T17:42:07;8.68;;;5.15;;